Pos'Et, Russia
Current Conditions -  °F | °C
As of 10:30 AM on Monday 22 Dec 2014 (Local Time) from UHWW Reporting Station
Broken Clouds Broken Clouds  
Wind Chill: -2°   Ceiling: 10000
Heat Index: -2°   Visibility: 6mi
Dew Point: -8°   Wind: 0mph
Humidity: 78%   Direction: NA
Pressure: 29.85"   Gusts: NA
Location:  42.65°N, 130.8°E
Report Text: UHWW 220030Z 00000MPS 9999 BKN100 M19/M22 Q1011 NOSIG RMKQFE757/1010 25CLRD60
Loading
Personal Weather Stations






























Interactive Weather Map New forecast layout! Learn more

10-Day Weather Forecast

Advertisements
Track Severe Weather on mobile